Time;durP1;ratioP1;P1;durP2;ratioP2;P2;SDS_P1;SDS_P2;PMS_P1;PMS_P2;Temp;Humidity;BMP_temperature;BMP_pressure;BME280_temperature;BME280_humidity;BME280_pressure;Samples;Min_cycle;Max_cycle;Signal;HPM_P1;HPM_P2
2021/12/17 00:05:13;;;;;;;61.35;24.38;;;;;;;5.96;100.00;98168.16;20436451;28;20062;-73
2021/12/17 00:15:14;;;;;;;57.38;25.40;;;;;;;5.94;100.00;98164.88;20444212;28;20043;-73
2021/12/17 00:56:12;;;;;;;76.97;27.05;;;;;;;5.88;100.00;98136.78;20411500;28;20047;-73
2021/12/17 01:06:13;;;;;;;79.63;29.80;;;;;;;5.83;100.00;98137.44;20444525;28;20058;-73
2021/12/17 01:16:14;;;;;;;66.07;25.92;;;;;;;5.80;100.00;98135.19;20428785;28;20503;-73
2021/12/17 01:36:33;;;;;;;69.78;25.85;;;;;;;5.75;100.00;98124.50;20433892;28;20487;-72
2021/12/17 01:46:37;;;;;;;73.70;27.30;;;;;;;5.70;100.00;98122.50;20408111;28;20049;-74
2021/12/17 01:56:51;;;;;;;77.18;27.55;;;;;;;5.79;100.00;98130.97;20401848;28;20402;-73
2021/12/17 02:06:52;;;;;;;51.53;23.45;;;;;;;5.69;100.00;98120.88;20406539;28;20043;-72
2021/12/17 02:37:32;;;;;;;49.20;21.67;;;;;;;5.53;100.00;98108.19;20440549;28;20761;-72
2021/12/17 02:47:33;;;;;;;42.40;19.10;;;;;;;5.49;100.00;98107.00;20461913;28;20081;-73
2021/12/17 02:57:35;;;;;;;40.37;18.17;;;;;;;5.45;100.00;98114.50;20451051;28;20337;-73
2021/12/17 03:07:39;;;;;;;44.15;19.35;;;;;;;5.50;100.00;98106.00;20462792;28;20307;-73
2021/12/17 03:27:49;;;;;;;70.30;22.27;;;;;;;5.42;100.00;98113.09;20456389;28;20099;-73
2021/12/17 03:37:50;;;;;;;63.72;22.00;;;;;;;5.32;100.00;98117.16;20439219;28;20415;-71
2021/12/17 03:47:50;;;;;;;67.93;22.52;;;;;;;5.28;100.00;98119.38;20451889;28;20091;-72
2021/12/17 03:57:50;;;;;;;64.07;22.50;;;;;;;5.25;100.00;98117.19;20438133;28;20043;-72
2021/12/17 04:07:51;;;;;;;64.78;22.13;;;;;;;5.15;100.00;98108.88;20427948;28;20039;-72
2021/12/17 04:17:55;;;;;;;62.28;21.33;;;;;;;5.15;100.00;98101.84;20441332;28;20075;-72
2021/12/17 04:27:56;;;;;;;46.90;17.75;;;;;;;5.11;100.00;98102.44;20436539;28;20043;-72
2021/12/17 04:37:57;;;;;;;31.13;14.07;;;;;;;5.00;100.00;98091.53;20419257;28;20087;-72
2021/12/17 04:58:16;;;;;;;33.10;13.40;;;;;;;4.94;100.00;98071.34;20440622;28;20054;-73
2021/12/17 05:08:19;;;;;;;28.83;13.48;;;;;;;4.86;100.00;98083.88;20425442;28;20427;-76
2021/12/17 05:18:28;;;;;;;26.52;11.10;;;;;;;4.85;100.00;98087.53;20447582;28;20059;-72
2021/12/17 05:28:28;;;;;;;29.83;13.13;;;;;;;4.91;100.00;98090.16;20435819;28;20134;-72
2021/12/17 05:38:30;;;;;;;27.65;11.98;;;;;;;4.89;100.00;98099.25;20437659;28;20051;-72
2021/12/17 05:48:31;;;;;;;27.80;12.98;;;;;;;4.83;100.00;98096.41;20429242;28;20130;-72
2021/12/17 05:58:31;;;;;;;19.95;9.70;;;;;;;4.70;100.00;98100.84;20431662;28;20046;-71
2021/12/17 06:08:31;;;;;;;19.02;8.35;;;;;;;4.57;100.00;98109.53;20432025;28;20062;-71
2021/12/17 06:18:32;;;;;;;16.40;8.80;;;;;;;4.54;100.00;98097.63;20440975;28;20043;-72
2021/12/17 06:28:32;;;;;;;22.13;10.88;;;;;;;4.57;100.00;98093.78;20435612;28;20494;-73
2021/12/17 06:38:32;;;;;;;20.67;11.82;;;;;;;4.59;100.00;98097.81;20437853;28;20047;-72
2021/12/17 06:48:33;;;;;;;22.52;11.23;;;;;;;4.50;100.00;98101.66;20435803;28;20051;-73
2021/12/17 06:58:51;;;;;;;26.30;14.32;;;;;;;4.48;100.00;98095.00;20429981;28;20035;-73
2021/12/17 07:09:47;;;;;;;17.17;9.27;;;;;;;4.27;100.00;98093.34;20415448;28;20253;-71
2021/12/17 07:31:28;;;;;;;18.95;9.43;;;;;;;3.90;100.00;98109.41;20459996;28;20047;-75
2021/12/17 07:50:36;;;;;;;17.92;9.80;;;;;;;3.62;100.00;98131.28;20453619;28;20050;-75
2021/12/17 08:00:37;;;;;;;21.48;12.40;;;;;;;3.77;100.00;98128.50;20455741;28;20119;-75
2021/12/17 08:31:22;;;;;;;13.65;7.97;;;;;;;4.03;100.00;98142.75;20456880;28;20495;-75
2021/12/17 08:41:23;;;;;;;13.77;8.45;;;;;;;4.00;100.00;98137.88;20466895;28;20510;-76
2021/12/17 08:51:23;;;;;;;18.25;11.23;;;;;;;4.28;100.00;98139.56;20446283;28;20278;-75
2021/12/17 09:01:23;;;;;;;16.20;9.43;;;;;;;4.39;100.00;98136.34;20461101;28;20051;-76
2021/12/17 09:11:27;;;;;;;16.63;9.32;;;;;;;4.43;100.00;98142.81;20448131;28;20464;-76
2021/12/17 09:21:27;;;;;;;19.95;10.43;;;;;;;4.46;100.00;98154.75;20456178;28;20771;-76
2021/12/17 09:31:27;;;;;;;13.95;8.18;;;;;;;4.52;100.00;98162.63;20433552;28;20078;-77
2021/12/17 09:41:28;;;;;;;13.13;7.05;;;;;;;4.60;100.00;98185.25;20447173;28;20047;-77
2021/12/17 09:51:28;;;;;;;18.10;10.07;;;;;;;4.62;100.00;98184.06;20451325;28;20514;-76
2021/12/17 10:01:29;;;;;;;21.13;10.30;;;;;;;4.70;100.00;98190.94;20435432;28;20507;-76
2021/12/17 10:11:30;;;;;;;19.60;10.00;;;;;;;4.85;100.00;98176.81;20435418;28;20462;-76
2021/12/17 10:21:32;;;;;;;20.40;10.07;;;;;;;4.82;100.00;98168.31;20450806;28;20098;-76
2021/12/17 10:31:36;;;;;;;18.77;9.73;;;;;;;5.00;100.00;98159.03;20461583;28;20125;-78
2021/12/17 10:41:48;;;;;;;18.23;8.45;;;;;;;4.94;100.00;98173.75;20434956;28;20074;-77
2021/12/17 10:51:56;;;;;;;17.83;9.15;;;;;;;4.93;100.00;98177.41;20442645;28;20124;-77
2021/12/17 11:02:01;;;;;;;15.70;8.43;;;;;;;5.11;100.00;98174.19;20459575;28;20129;-76
2021/12/17 11:12:13;;;;;;;16.15;8.85;;;;;;;5.33;100.00;98164.25;20437637;28;20480;-77
2021/12/17 11:22:14;;;;;;;15.20;7.82;;;;;;;5.41;100.00;98168.47;20451664;28;20423;-75
2021/12/17 11:32:15;;;;;;;16.98;8.82;;;;;;;5.54;100.00;98171.09;20450845;28;20085;-76
2021/12/17 11:42:48;;;;;;;13.35;7.00;;;;;;;5.34;100.00;98160.59;20413748;28;20533;-77
2021/12/17 11:52:53;;;;;;;13.68;6.65;;;;;;;5.38;100.00;98153.94;20444689;28;20753;-77
2021/12/17 12:03:12;;;;;;;16.00;7.28;;;;;;;5.35;100.00;98146.47;20438446;28;20288;-76
2021/12/17 12:13:36;;;;;;;12.00;5.93;;;;;;;5.65;100.00;98127.56;20455208;28;20448;-78
2021/12/17 12:23:39;;;;;;;10.90;5.53;;;;;;;5.53;100.00;98139.75;20452913;28;20046;-79
2021/12/17 12:34:06;;;;;;;8.65;5.05;;;;;;;5.35;100.00;98146.47;20423002;28;20554;-75
2021/12/17 12:44:06;;;;;;;13.75;5.68;;;;;;;5.49;100.00;98139.34;20455608;28;20027;-78
2021/12/17 12:54:07;;;;;;;12.38;5.65;;;;;;;5.43;100.00;98129.66;20451272;28;20513;-78
2021/12/17 13:04:08;;;;;;;9.90;5.00;;;;;;;5.28;100.00;98123.84;20451875;28;20106;-76
2021/12/17 13:14:09;;;;;;;11.30;5.50;;;;;;;5.26;100.00;98110.09;20479730;28;20035;-77
2021/12/17 13:24:14;;;;;;;10.93;5.15;;;;;;;5.28;100.00;98111.50;20453884;28;20055;-77
2021/12/17 13:34:37;;;;;;;10.98;5.20;;;;;;;5.41;100.00;98119.38;20469628;28;20058;-78
2021/12/17 13:44:43;;;;;;;12.00;6.28;;;;;;;5.31;100.00;98113.72;20461282;28;20628;-78
2021/12/17 13:54:48;;;;;;;13.27;6.00;;;;;;;5.46;100.00;98115.31;20426880;28;20089;-78
2021/12/17 14:05:01;;;;;;;11.40;6.00;;;;;;;5.48;100.00;98118.53;20474549;28;20184;-77
2021/12/17 14:15:10;;;;;;;12.98;7.40;;;;;;;5.41;100.00;98108.84;20466741;28;20538;-77
2021/12/17 14:25:31;;;;;;;11.15;6.15;;;;;;;5.45;100.00;98125.00;20469967;28;20050;-77
2021/12/17 14:35:42;;;;;;;16.60;8.80;;;;;;;5.25;100.00;98130.31;20482118;28;20117;-77
2021/12/17 14:45:52;;;;;;;19.10;11.10;;;;;;;5.19;100.00;98120.59;20479070;28;20407;-77
2021/12/17 15:06:15;;;;;;;25.63;11.25;;;;;;;5.07;100.00;98122.25;20465526;28;20421;-78
2021/12/17 15:16:15;;;;;;;23.45;11.23;;;;;;;5.08;100.00;98129.13;20455745;28;20055;-77
2021/12/17 15:26:16;;;;;;;28.00;11.88;;;;;;;5.00;100.00;98138.81;20465252;28;20039;-77
2021/12/17 15:36:16;;;;;;;29.50;14.00;;;;;;;4.95;100.00;98145.69;20472023;28;21296;-78
2021/12/17 15:46:17;;;;;;;32.40;14.02;;;;;;;5.02;100.00;98146.50;20472505;28;20068;-77
2021/12/17 15:56:17;;;;;;;26.33;13.77;;;;;;;4.93;100.00;98138.03;20455867;28;20054;-78
2021/12/17 16:06:18;;;;;;;27.02;14.20;;;;;;;4.87;100.00;98143.28;20433307;28;20058;-75
2021/12/17 16:26:37;;;;;;;20.42;11.25;;;;;;;4.91;100.00;98153.16;20423623;28;20039;-75
2021/12/17 16:36:39;;;;;;;17.88;10.18;;;;;;;4.90;100.00;98145.50;20437563;28;20066;-75
2021/12/17 16:56:45;;;;;;;16.37;9.20;;;;;;;4.84;100.00;98107.72;20427462;28;20050;-75
2021/12/17 17:06:46;;;;;;;14.73;8.05;;;;;;;4.76;100.00;98115.78;20448129;28;20412;-76
2021/12/17 17:16:46;;;;;;;16.08;8.73;;;;;;;4.74;100.00;98123.91;20450457;28;20054;-75
2021/12/17 17:26:46;;;;;;;17.17;9.55;;;;;;;4.70;100.00;98129.72;20403086;28;20730;-76
2021/12/17 17:36:47;;;;;;;19.52;10.77;;;;;;;4.61;100.00;98126.50;20425648;28;20459;-76
2021/12/17 17:46:47;;;;;;;15.82;9.15;;;;;;;4.61;100.00;98118.63;20402533;28;20058;-76
2021/12/17 17:56:48;;;;;;;17.40;9.43;;;;;;;4.49;100.00;98114.97;20442256;28;20042;-75
2021/12/17 18:06:48;;;;;;;17.48;9.60;;;;;;;4.50;100.00;98120.03;20415190;28;20079;-75
2021/12/17 18:16:50;;;;;;;21.25;11.48;;;;;;;4.54;100.00;98120.44;20418132;28;20051;-75
2021/12/17 18:26:50;;;;;;;24.63;12.73;;;;;;;4.48;100.00;98118.63;20429748;28;20468;-75
2021/12/17 18:36:51;;;;;;;26.27;13.52;;;;;;;4.45;100.00;98129.50;20432437;28;20047;-76
2021/12/17 18:46:52;;;;;;;27.48;13.52;;;;;;;4.43;100.00;98121.84;20437463;28;20051;-76
2021/12/17 18:56:52;;;;;;;26.77;13.80;;;;;;;4.40;100.00;98117.00;20393203;28;20067;-75
2021/12/17 19:06:52;;;;;;;30.23;14.48;;;;;;;4.25;100.00;98129.47;20431937;28;20070;-75
2021/12/17 19:16:54;;;;;;;28.80;13.20;;;;;;;4.08;100.00;98135.06;20422753;28;20051;-75
2021/12/17 19:26:55;;;;;;;31.50;15.52;;;;;;;4.05;100.00;98126.81;20443834;28;20046;-75
2021/12/17 19:36:56;;;;;;;33.88;14.77;;;;;;;3.97;100.00;98128.59;20449528;28;20051;-75
2021/12/17 19:57:12;;;;;;;32.85;14.68;;;;;;;3.63;100.00;98132.88;20429615;28;20134;-75
2021/12/17 20:07:12;;;;;;;25.90;13.15;;;;;;;3.50;100.00;98129.41;20434826;28;20047;-75
2021/12/17 20:17:16;;;;;;;27.25;13.68;;;;;;;3.33;100.00;98123.66;20418937;28;20048;-76
2021/12/17 20:27:17;;;;;;;28.27;13.73;;;;;;;3.06;100.00;98127.94;20433894;28;20070;-75
2021/12/17 20:37:17;;;;;;;29.50;15.48;;;;;;;2.80;100.00;98118.91;20413763;28;20142;-76
2021/12/17 20:47:19;;;;;;;26.90;12.88;;;;;;;2.53;100.00;98110.00;20413945;28;20551;-72
2021/12/17 20:57:20;;;;;;;21.95;11.57;;;;;;;2.38;100.00;98112.69;20402248;28;20377;-73
2021/12/17 21:07:21;;;;;;;29.38;14.85;;;;;;;2.32;100.00;98109.00;20400537;28;20050;-71
2021/12/17 21:17:21;;;;;;;25.30;12.55;;;;;;;2.15;100.00;98108.47;20427048;28;20158;-72
2021/12/17 21:27:22;;;;;;;29.75;15.27;;;;;;;2.08;100.00;98118.03;20422080;28;20038;-72
2021/12/17 21:37:22;;;;;;;29.73;13.48;;;;;;;1.95;100.00;98110.06;20427744;28;20097;-72
2021/12/17 21:47:23;;;;;;;32.38;14.68;;;;;;;1.72;100.00;98121.47;20432602;28;20122;-73
2021/12/17 21:57:23;;;;;;;25.48;13.45;;;;;;;1.57;100.00;98120.66;20424909;28;20055;-72
2021/12/17 22:07:23;;;;;;;28.23;13.38;;;;;;;1.63;100.00;98122.53;20418080;28;20043;-72
2021/12/17 22:17:25;;;;;;;27.83;13.23;;;;;;;1.42;100.00;98131.13;20415650;28;20181;-72
2021/12/17 22:27:25;;;;;;;31.80;14.32;;;;;;;1.26;100.00;98119.03;20421906;28;20043;-72
2021/12/17 22:37:28;;;;;;;25.48;12.52;;;;;;;1.10;100.00;98109.59;20420522;28;20051;-72
2021/12/17 22:47:28;;;;;;;26.80;13.55;;;;;;;0.99;100.00;98113.44;20436129;28;20085;-72
2021/12/17 22:57:28;;;;;;;32.88;16.52;;;;;;;1.15;100.00;98103.84;20442078;28;20430;-72
2021/12/17 23:07:53;;;;;;;41.47;17.80;;;;;;;1.32;100.00;98107.88;20420821;28;20666;-72
2021/12/17 23:17:52;;;;;;;37.17;17.05;;;;;;;1.13;100.00;98113.66;20447426;28;21171;-72
2021/12/17 23:27:53;;;;;;;43.22;17.98;;;;;;;0.86;100.00;98113.25;20430255;28;20122;-72
2021/12/17 23:37:53;;;;;;;43.58;17.83;;;;;;;0.56;100.00;98109.78;20442246;28;20106;-71
2021/12/17 23:47:53;;;;;;;56.10;21.08;;;;;;;0.64;100.00;98108.91;20445305;28;20055;-72
2021/12/17 23:57:54;;;;;;;56.58;20.67;;;;;;;0.74;100.00;98112.88;20397209;28;20502;-72
